Terminal Aerodrome Forecast
Issued by NWS Los Angeles, CA

Current Version | Previous Version | Text Only | Print | Product List | Glossary On
Versions: 1 2 3 4 5 6 7 8 9 10 11 12 13 14 15 16 17 18
000
FTUS46 KLOX 240500
TAFSMX
TAF
KSMX 240527Z 2406/2506 30010KT P6SM BKN003
     FM241000 VRB03KT 2SM BR BKN002
     FM241500 30010KT P6SM SKC
     FM242000 30018G28KT P6SM SKC
     FM250100 30008KT P6SM SKC=

USA.gov is the U.S. government's official web portal to all federal, state and local government web resources and services.